Time;durP1;ratioP1;P1;durP2;ratioP2;P2;SDS_P1;SDS_P2;PMS_P1;PMS_P2;Temp;Humidity;BMP_temperature;BMP_pressure;BME280_temperature;BME280_humidity;BME280_pressure;Samples;Min_cycle;Max_cycle;Signal;HPM_P1;HPM_P2
2024/04/23 00:01:59;;;;;;;;;16.00;13.00;;;;;3.26;79.17;101045.80;112968;232;42078;-63
2024/04/23 00:04:40;;;;;;;;;18.50;13.00;;;;;3.26;79.17;101043.81;112509;232;169499;-62
2024/04/23 00:07:24;;;;;;;;;19.00;13.50;;;;;3.22;79.33;101041.45;112964;235;39699;-62
2024/04/23 00:09:59;;;;;;;;;19.00;13.00;;;;;3.21;79.33;101040.30;112390;234;169482;-58
2024/04/23 00:12:34;;;;;;;;;22.00;15.00;;;;;3.19;79.38;101033.76;112593;235;40523;-57
2024/04/23 00:15:09;;;;;;;;;17.00;12.00;;;;;3.15;79.48;101027.98;112706;232;169744;-60
2024/04/23 00:17:51;;;;;;;;;17.00;13.00;;;;;3.12;79.53;101029.17;112794;232;40180;-59
2024/04/23 00:20:31;;;;;;;;;17.00;12.00;;;;;3.07;79.58;101029.20;112950;232;39866;-58
2024/04/23 00:23:07;;;;;;;;;20.33;14.67;;;;;3.06;79.67;101023.26;112512;236;39733;-57
2024/04/23 00:25:42;;;;;;;;;18.75;13.00;;;;;3.02;79.71;101028.06;112512;236;39848;-60
2024/04/23 00:28:17;;;;;;;;;19.00;15.00;;;;;3.02;79.73;101029.27;112445;236;169728;-61
2024/04/23 00:30:54;;;;;;;;;19.50;14.00;;;;;3.04;79.69;101027.33;112546;232;40707;-61
2024/04/23 00:33:30;;;;;;;;;19.00;14.00;;;;;2.99;79.85;101026.32;112639;232;169919;-61
2024/04/23 00:36:07;;;;;;;;;16.33;11.67;;;;;2.95;79.78;101021.48;112541;233;41412;-61
2024/04/23 00:38:41;;;;;;;;;11.00;9.00;;;;;2.91;80.02;101016.49;112740;232;170204;-62
2024/04/23 00:41:20;;;;;;;;;18.00;13.00;;;;;2.92;79.98;101014.60;112654;232;40522;-62
2024/04/23 00:43:57;;;;;;;;;17.00;13.00;;;;;2.90;80.06;101015.98;112584;233;39778;-58
2024/04/23 00:46:36;;;;;;;;;17.00;14.00;;;;;2.88;80.14;101012.76;112568;232;169273;-59
2024/04/23 00:49:14;;;;;;;;;13.00;10.00;;;;;2.92;80.13;101016.56;113011;232;40665;-61
2024/04/23 00:51:56;;;;;;;;;20.00;16.00;;;;;2.92;80.26;101016.77;112586;235;169384;-63
2024/04/23 00:54:32;;;;;;;;;21.00;17.00;;;;;2.94;80.31;101020.52;112950;232;40484;-58
2024/04/23 00:57:10;;;;;;;;;18.00;14.00;;;;;2.95;80.35;101022.84;112723;232;169669;-60
2024/04/23 00:59:46;;;;;;;;;17.00;13.00;;;;;3.01;80.32;101021.20;112786;232;40690;-59
2024/04/23 01:02:28;;;;;;;;;17.00;12.00;;;;;3.03;80.32;101022.09;112937;232;40404;-58
2024/04/23 01:05:04;;;;;;;;;19.00;13.00;;;;;3.05;80.15;101020.48;112508;232;40874;-62
2024/04/23 01:07:38;;;;;;;;;16.67;12.00;;;;;3.05;80.21;101021.05;112548;232;41224;-63
2024/04/23 01:10:16;;;;;;;;;15.00;11.50;;;;;3.03;80.26;101026.17;112459;236;169597;-61
2024/04/23 01:12:52;;;;;;;;;17.33;12.00;;;;;3.02;80.44;101025.73;112862;232;40524;-59
2024/04/23 01:15:32;;;;;;;;;19.00;13.00;;;;;3.02;80.35;101028.96;112688;235;169587;-58
2024/04/23 01:18:10;;;;;;;;;17.00;11.00;;;;;2.97;80.47;101029.31;112787;232;41335;-58
2024/04/23 01:20:53;;;;;;;;;15.50;11.00;;;;;2.96;80.53;101032.23;112746;232;169715;-57
2024/04/23 01:23:40;;;;;;;;;18.00;13.00;;;;;2.94;80.51;101036.44;112557;233;40790;-59
2024/04/23 01:26:18;;;;;;;;;15.00;11.00;;;;;2.97;80.53;101033.55;112946;232;40378;-59
2024/04/23 01:28:55;;;;;;;;;14.67;12.00;;;;;2.96;80.47;101031.70;112400;233;170052;-59
2024/04/23 01:31:31;;;;;;;;;15.00;11.00;;;;;2.93;80.47;101032.69;112559;232;40228;-59
2024/04/23 01:34:09;;;;;;;;;18.00;14.00;;;;;2.89;80.52;101023.86;112474;232;169661;-62
2024/04/23 01:36:49;;;;;;;;;16.00;13.00;;;;;2.84;80.48;101020.21;112643;236;40664;-61
2024/04/23 01:39:26;;;;;;;;;16.00;13.00;;;;;2.82;80.67;101018.14;112476;232;169558;-58
2024/04/23 01:42:04;;;;;;;;;17.00;12.00;;;;;2.82;80.61;101014.34;112573;232;40418;-59
2024/04/23 01:44:41;;;;;;;;;18.00;13.00;;;;;2.86;80.55;101014.20;112462;232;169622;-59
2024/04/23 01:47:22;;;;;;;;;12.00;8.00;;;;;2.81;80.76;101008.00;112492;233;40696;-57
2024/04/23 01:49:58;;;;;;;;;17.00;11.67;;;;;2.80;80.71;101007.04;112582;232;40480;-61
2024/04/23 01:52:39;;;;;;;;;18.33;13.67;;;;;2.76;80.90;101006.52;112349;236;169510;-62
2024/04/23 01:55:21;;;;;;;;;15.00;12.00;;;;;2.69;81.02;101004.03;112590;232;40425;-59
2024/04/23 01:58:00;;;;;;;;;13.00;9.00;;;;;2.64;81.23;101008.20;112380;236;169684;-59
2024/04/23 02:00:39;;;;;;;;;16.33;12.00;;;;;2.64;81.12;101003.21;112582;233;41657;-61
2024/04/23 02:03:19;;;;;;;;;15.00;11.00;;;;;2.65;81.29;101003.67;112311;234;169533;-61
2024/04/23 02:05:55;;;;;;;;;18.00;13.00;;;;;2.66;81.25;101007.17;112518;233;40335;-61
2024/04/23 02:08:31;;;;;;;;;14.00;11.00;;;;;2.65;81.38;101002.59;112625;232;40333;-61
2024/04/23 02:11:08;;;;;;;;;16.00;12.50;;;;;2.65;81.42;101006.88;112502;232;40734;-62
2024/04/23 02:13:50;;;;;;;;;20.00;14.00;;;;;2.65;81.50;101003.51;112553;232;40650;-59
2024/04/23 02:16:33;;;;;;;;;21.00;14.00;;;;;2.66;81.63;101005.01;112442;232;169485;-59
2024/04/23 02:19:09;;;;;;;;;15.00;12.00;;;;;2.66;81.58;101009.30;112946;232;42262;-63
2024/04/23 02:21:47;;;;;;;;;19.00;14.00;;;;;2.69;81.44;101011.35;112627;232;169503;-62
2024/04/23 02:24:25;;;;;;;;;17.00;13.50;;;;;2.69;81.53;101012.39;112854;232;40224;-61
2024/04/23 02:26:59;;;;;;;;;13.00;10.00;;;;;2.71;81.64;101012.30;112797;235;169692;-62
2024/04/23 02:29:37;;;;;;;;;16.00;12.33;;;;;2.72;81.52;101010.27;112755;232;39910;-58
2024/04/23 02:32:19;;;;;;;;;15.00;12.00;;;;;2.72;81.58;101013.62;112993;232;41411;-58
2024/04/23 02:34:53;;;;;;;;;17.00;14.00;;;;;2.73;81.57;101021.01;112519;235;169192;-58
2024/04/23 02:37:28;;;;;;;;;16.67;12.33;;;;;2.75;81.48;101019.40;112964;232;40616;-57
2024/04/23 02:40:06;;;;;;;;;21.50;15.50;;;;;2.72;81.66;101015.71;112596;235;170890;-58
2024/04/23 02:42:42;;;;;;;;;14.00;11.00;;;;;2.75;81.60;101017.45;112549;232;39886;-57
2024/04/23 02:45:20;;;;;;;;;17.00;12.00;;;;;2.73;81.69;101025.08;112342;236;169678;-56
2024/04/23 02:47:58;;;;;;;;;10.00;9.00;;;;;2.70;81.71;101025.35;112746;232;40789;-55
2024/04/23 02:50:32;;;;;;;;;17.00;13.00;;;;;2.74;81.71;101023.96;112910;232;40090;-55
2024/04/23 02:53:08;;;;;;;;;11.50;9.00;;;;;2.73;81.83;101023.45;112466;236;41535;-56
2024/04/23 02:55:43;;;;;;;;;18.00;11.00;;;;;2.75;81.63;101019.01;112548;232;40270;-54
2024/04/23 02:58:18;;;;;;;;;18.00;13.00;;;;;2.77;81.65;101021.16;112423;236;170285;-56
2024/04/23 03:00:56;;;;;;;;;18.50;15.00;;;;;2.80;81.57;101020.79;112955;232;41564;-62
2024/04/23 03:03:34;;;;;;;;;13.00;9.00;;;;;2.79;81.50;101027.30;112622;235;170228;-61
2024/04/23 03:06:09;;;;;;;;;19.00;13.00;;;;;2.75;81.72;101024.22;112517;232;40496;-61
2024/04/23 03:08:49;;;;;;;;;19.67;14.67;;;;;2.72;81.77;101024.98;112459;232;170821;-56
2024/04/23 03:11:27;;;;;;;;;15.00;11.00;;;;;2.72;81.83;101025.69;113005;231;40708;-56
2024/04/23 03:14:04;;;;;;;;;19.00;14.00;;;;;2.75;81.68;101024.20;113020;230;41440;-53
2024/04/23 03:16:47;;;;;;;;;15.00;11.67;;;;;2.73;81.76;101023.98;112467;234;169516;-56
2024/04/23 03:19:27;;;;;;;;;13.00;10.00;;;;;2.70;81.77;101024.80;112491;234;40791;-57
2024/04/23 03:22:02;;;;;;;;;15.50;12.50;;;;;2.69;81.95;101026.42;112620;231;169670;-56
2024/04/23 03:24:38;;;;;;;;;16.00;12.00;;;;;2.71;82.04;101023.98;113020;230;39682;-57
2024/04/23 03:27:16;;;;;;;;;16.00;13.00;;;;;2.69;82.08;101028.40;112696;230;169761;-57
2024/04/23 03:29:56;;;;;;;;;20.33;14.67;;;;;2.72;81.91;101022.34;112482;232;41016;-57
2024/04/23 03:32:36;;;;;;;;;14.00;10.00;;;;;2.72;81.86;101022.51;112518;232;41415;-57
2024/04/23 03:35:14;;;;;;;;;15.50;11.00;;;;;2.66;81.85;101020.52;112454;236;40732;-57
2024/04/23 03:37:56;;;;;;;;;18.00;12.00;;;;;2.63;82.08;101013.79;112492;232;41401;-57
2024/04/23 03:40:42;;;;;;;;;14.33;10.67;;;;;2.63;82.00;101010.24;112524;232;171014;-59
2024/04/23 03:43:18;;;;;;;;;19.00;12.00;;;;;2.60;82.24;101013.14;112940;232;40281;-58
2024/04/23 03:45:52;;;;;;;;;14.00;12.00;;;;;2.63;82.22;101010.77;112592;235;169723;-59
2024/04/23 03:48:26;;;;;;;;;22.00;15.25;;;;;2.60;82.34;101010.84;112548;236;41104;-57
2024/04/23 03:51:04;;;;;;;;;14.00;10.00;;;;;2.59;82.48;101008.77;112439;232;169739;-57
2024/04/23 03:53:41;;;;;;;;;20.00;15.00;;;;;2.59;82.39;101009.50;112964;234;40915;-58
2024/04/23 03:56:15;;;;;;;;;15.75;13.00;;;;;2.63;82.20;101012.05;113134;230;40868;-57
2024/04/23 03:58:52;;;;;;;;;18.50;15.00;;;;;2.58;82.46;101012.64;112440;233;169602;-58
2024/04/23 04:01:26;;;;;;;;;21.00;14.00;;;;;2.56;82.56;101013.46;112525;232;41141;-57
2024/04/23 04:07:01;;;;;;;;;12.50;9.00;;;;;2.71;82.28;101012.23;113158;230;40430;-57
2024/04/23 04:09:39;;;;;;;;;13.00;10.00;;;;;2.75;82.23;101013.02;112784;233;169612;-58
2024/04/23 04:12:16;;;;;;;;;12.67;9.00;;;;;2.78;82.20;101012.38;112533;232;40422;-57
2024/04/23 04:14:50;;;;;;;;;18.00;14.00;;;;;2.80;82.21;101010.05;112429;235;170495;-56
2024/04/23 04:17:30;;;;;;;;;21.00;15.00;;;;;2.82;82.18;101014.34;112986;234;40423;-60
2024/04/23 04:20:06;;;;;;;;;23.50;16.25;;;;;2.85;82.13;101011.97;113110;230;39849;-58
2024/04/23 04:22:44;;;;;;;;;20.00;14.25;;;;;2.85;82.23;101010.77;112427;234;170204;-59
2024/04/23 04:25:19;;;;;;;;;20.00;16.00;;;;;2.91;81.98;101012.40;112523;236;40669;-61
2024/04/23 04:27:54;;;;;;;;;21.67;17.00;;;;;2.88;82.01;101015.51;112345;236;170568;-59
2024/04/23 04:30:36;;;;;;;;;19.00;13.00;;;;;2.87;82.10;101015.75;112803;235;41824;-56
2024/04/23 04:33:13;;;;;;;;;14.00;11.00;;;;;2.91;82.06;101013.99;112367;234;170169;-61
2024/04/23 04:35:47;;;;;;;;;16.00;13.00;;;;;2.90;82.29;101012.06;112498;233;40339;-57
2024/04/23 04:38:22;;;;;;;;;20.00;15.00;;;;;2.92;82.24;101008.17;112488;233;40786;-56
2024/04/23 04:41:02;;;;;;;;;19.75;14.00;;;;;2.91;82.34;101011.48;112540;237;169508;-59
2024/04/23 04:43:37;;;;;;;;;19.67;14.00;;;;;2.88;82.34;101009.38;112505;233;41751;-60
2024/04/23 04:46:12;;;;;;;;;14.33;10.67;;;;;2.93;82.25;101010.09;112377;234;169765;-61
2024/04/23 04:48:52;;;;;;;;;15.67;12.00;;;;;3.02;82.17;101010.20;112582;233;41680;-61
2024/04/23 04:51:28;;;;;;;;;18.50;14.75;;;;;3.06;82.14;101008.13;112330;236;169825;-61
2024/04/23 04:54:02;;;;;;;;;19.00;14.00;;;;;3.08;82.17;101009.39;112511;233;42161;-58
2024/04/23 04:56:49;;;;;;;;;21.50;14.50;;;;;3.07;82.17;101008.77;112500;233;39643;-57
2024/04/23 04:59:24;;;;;;;;;17.00;13.00;;;;;3.12;82.19;101007.23;112468;234;40442;-55
2024/04/23 05:02:03;;;;;;;;;18.00;15.00;;;;;3.18;82.07;101007.84;112507;236;39909;-57
2024/04/23 05:04:39;;;;;;;;;17.50;13.00;;;;;3.19;82.05;101006.82;112317;233;169567;-61
2024/04/23 05:07:14;;;;;;;;;14.00;10.00;;;;;3.25;81.92;101001.34;112522;232;41433;-60
2024/04/23 05:09:52;;;;;;;;;19.67;15.67;;;;;3.29;81.74;101004.23;112364;233;170870;-64
2024/04/23 05:12:35;;;;;;;;;18.00;14.00;;;;;3.34;81.64;101002.02;112519;232;38973;-59
2024/04/23 05:15:11;;;;;;;;;16.33;11.33;;;;;3.43;81.49;101003.97;112388;232;169490;-61
2024/04/23 05:17:47;;;;;;;;;19.00;14.00;;;;;3.48;81.34;101001.35;112500;236;39959;-61
2024/04/23 05:20:23;;;;;;;;;18.00;14.67;;;;;3.56;81.23;101002.25;112562;236;40461;-59
2024/04/23 05:23:02;;;;;;;;;18.00;12.50;;;;;3.58;81.20;101001.08;112361;236;169996;-60
2024/04/23 05:25:40;;;;;;;;;17.00;12.00;;;;;3.64;81.06;101006.27;112607;234;39863;-57
2024/04/23 05:28:28;;;;;;;;;21.00;17.00;;;;;3.68;81.21;101006.61;112633;235;170363;-57
2024/04/23 05:33:59;;;;;;;;;19.00;14.00;;;;;3.81;80.86;101012.77;112624;235;170065;-61
2024/04/23 05:36:39;;;;;;;;;17.00;13.00;;;;;3.85;80.69;101013.66;112528;234;39948;-61
2024/04/23 05:39:14;;;;;;;;;16.50;12.50;;;;;3.92;80.55;101012.67;112508;231;170158;-59
2024/04/23 05:41:52;;;;;;;;;15.00;12.00;;;;;3.90;80.79;101013.55;112945;230;40738;-60
2024/04/23 05:44:32;;;;;;;;;20.67;15.67;;;;;4.02;80.71;101016.30;113046;230;39875;-57
2024/04/23 05:47:11;;;;;;;;;21.00;14.00;;;;;4.11;80.63;101009.45;112321;235;169656;-56
2024/04/23 05:50:25;;;;;;;;;20.00;15.00;;;;;4.12;80.66;101007.88;112549;236;40193;-58
2024/04/23 05:53:41;;;;;;;;;21.00;16.00;;;;;4.18;80.59;101010.58;112737;231;169851;-58
2024/04/23 05:56:16;;;;;;;;;18.33;14.00;;;;;4.31;80.26;101014.64;112971;230;41187;-58
2024/04/23 05:58:55;;;;;;;;;21.00;16.00;;;;;4.41;79.93;101015.21;112407;233;169954;-59
2024/04/23 06:01:29;;;;;;;;;20.00;14.33;;;;;4.44;79.94;101014.38;112544;232;41211;-59
2024/04/23 06:04:07;;;;;;;;;20.00;15.00;;;;;4.52;80.01;101020.22;112585;235;170021;-59
2024/04/23 06:06:45;;;;;;;;;20.75;15.50;;;;;4.61;79.51;101015.86;112974;230;40364;-57
2024/04/23 06:09:26;;;;;;;;;22.00;17.00;;;;;4.65;79.47;101019.41;112763;230;170105;-59
2024/04/23 06:12:05;;;;;;;;;18.67;14.33;;;;;4.73;79.15;101024.96;112540;232;41330;-57
2024/04/23 06:14:43;;;;;;;;;20.33;16.00;;;;;4.76;79.18;101032.69;112571;232;41220;-59
2024/04/23 06:17:27;;;;;;;;;19.50;15.00;;;;;4.89;78.98;101036.04;112607;232;40967;-59
2024/04/23 06:20:03;;;;;;;;;21.00;14.00;;;;;4.92;79.00;101032.36;112606;232;39861;-56
2024/04/23 06:22:40;;;;;;;;;19.00;14.00;;;;;4.96;78.90;101036.60;112360;233;170210;-55
2024/04/23 06:25:23;;;;;;;;;19.00;15.00;;;;;5.03;78.75;101035.42;112593;236;40670;-57
2024/04/23 06:28:03;;;;;;;;;19.50;15.50;;;;;5.12;78.66;101037.27;112330;233;169368;-58
2024/04/23 06:30:41;;;;;;;;;22.00;16.00;;;;;5.21;78.18;101044.08;112516;233;40630;-60
2024/04/23 06:33:22;;;;;;;;;26.00;19.00;;;;;5.31;77.31;101043.21;112286;232;169640;-60
2024/04/23 06:35:59;;;;;;;;;20.00;16.25;;;;;5.36;76.90;101041.90;112483;236;40830;-61
2024/04/23 06:38:33;;;;;;;;;22.00;16.00;;;;;5.36;77.11;101045.58;112535;233;40452;-57
2024/04/23 06:41:12;;;;;;;;;22.00;19.00;;;;;5.45;76.81;101045.86;112313;234;169596;-57
2024/04/23 06:43:46;;;;;;;;;22.25;16.00;;;;;5.50;76.29;101044.89;112525;233;39721;-61
2024/04/23 06:46:24;;;;;;;;;24.00;16.00;;;;;5.52;76.51;101039.63;112351;233;169918;-60
2024/04/23 06:48:59;;;;;;;;;20.00;16.00;;;;;5.58;76.76;101038.93;111754;237;980206;-59
2024/04/23 06:51:36;;;;;;;;;20.50;16.50;;;;;5.71;76.87;101040.36;112353;237;170443;-59
2024/04/23 06:54:11;;;;;;;;;18.67;13.67;;;;;5.83;76.95;101043.70;112449;233;40959;-57
2024/04/23 06:56:48;;;;;;;;;23.00;18.00;;;;;5.99;76.75;101039.55;112515;233;40757;-58
2024/04/23 06:59:27;;;;;;;;;19.00;15.00;;;;;6.21;76.10;101035.78;112524;233;41180;-59
2024/04/23 07:02:05;;;;;;;;;17.50;15.00;;;;;6.34;75.82;101036.92;112578;236;41616;-58
2024/04/23 07:04:39;;;;;;;;;16.00;13.00;;;;;6.44;74.98;101040.39;112388;236;169534;-56
2024/04/23 07:07:21;;;;;;;;;18.00;14.33;;;;;6.46;74.53;101037.54;112513;233;40018;-57
2024/04/23 07:10:02;;;;;;;;;16.00;13.00;;;;;6.62;73.97;101037.27;112357;233;169270;-60
2024/04/23 07:12:40;;;;;;;;;19.50;15.00;;;;;6.72;74.21;101040.55;112506;236;40121;-61
2024/04/23 07:15:16;;;;;;;;;20.00;16.00;;;;;6.98;73.66;101038.71;112344;236;169849;-60
2024/04/23 07:18:09;;;;;;;;;27.00;20.50;;;;;7.18;73.35;101038.84;112531;233;40115;-61
2024/04/23 07:20:45;;;;;;;;;20.67;16.33;;;;;7.39;73.30;101037.78;112467;236;40104;-56
2024/04/23 07:23:22;;;;;;;;;25.75;17.50;;;;;7.56;73.27;101035.48;112279;233;169398;-57
2024/04/23 07:26:03;;;;;;;;;15.50;12.75;;;;;7.77;72.81;101033.44;112449;233;40229;-56
2024/04/23 07:28:39;;;;;;;;;21.00;17.00;;;;;7.94;72.56;101031.66;112321;233;169065;-59
2024/04/23 07:31:16;;;;;;;;;20.00;16.00;;;;;8.07;72.31;101034.02;112520;232;41978;-60
2024/04/23 07:33:50;;;;;;;;;17.00;15.00;;;;;8.22;71.90;101035.98;112283;232;169078;-57
2024/04/23 07:36:29;;;;;;;;;26.50;19.00;;;;;8.34;71.21;101040.92;112544;233;40759;-56
2024/04/23 07:39:04;;;;;;;;;20.00;15.00;;;;;8.47;70.42;101033.52;112388;232;170792;-58
2024/04/23 07:41:41;;;;;;;;;17.00;14.00;;;;;8.69;70.40;101035.64;112552;232;40191;-57
2024/04/23 07:44:16;;;;;;;;;22.00;17.00;;;;;8.89;70.02;101035.45;112542;232;40175;-58
2024/04/23 07:46:58;;;;;;;;;18.33;15.00;;;;;9.02;69.71;101031.90;112349;232;169740;-58
2024/04/23 07:49:44;;;;;;;;;21.00;17.00;;;;;9.10;69.42;101029.02;112516;232;40388;-59
2024/04/23 07:52:23;;;;;;;;;21.00;16.50;;;;;9.29;69.18;101020.67;112371;232;169868;-60
2024/04/23 07:54:58;;;;;;;;;19.00;14.00;;;;;9.58;68.43;101017.64;112524;232;41926;-60
2024/04/23 07:57:32;;;;;;;;;18.00;14.00;;;;;9.77;67.91;101013.16;112340;236;169966;-60
2024/04/23 08:00:08;;;;;;;;;18.50;15.00;;;;;9.81;66.95;101014.58;112530;234;40931;-59
2024/04/23 08:02:52;;;;;;;;;14.00;12.00;;;;;9.82;65.70;101017.44;112550;232;39963;-60
2024/04/23 08:05:28;;;;;;;;;8.00;6.50;;;;;9.66;63.54;101014.91;112519;234;40648;-60
2024/04/23 08:08:05;;;;;;;;;16.00;12.00;;;;;9.33;62.75;101016.66;112508;233;40707;-60
2024/04/23 08:10:43;;;;;;;;;16.00;12.00;;;;;9.22;62.01;101020.02;112319;232;169562;-60
2024/04/23 08:13:17;;;;;;;;;12.00;10.00;;;;;9.07;61.52;101021.16;112541;232;40126;-60
2024/04/23 08:15:56;;;;;;;;;8.00;6.00;;;;;8.82;60.62;101021.11;112369;232;169832;-56
2024/04/23 08:18:34;;;;;;;;;7.00;6.00;;;;;8.58;59.15;101016.70;112560;232;42217;-58
2024/04/23 08:21:10;;;;;;;;;6.25;5.00;;;;;8.30;59.41;101017.30;112376;236;169504;-59
2024/04/23 08:23:50;;;;;;;;;5.00;4.00;;;;;8.16;59.42;101017.68;112528;236;40009;-55
2024/04/23 08:26:30;;;;;;;;;9.00;7.00;;;;;8.17;58.95;101013.98;112512;233;40483;-57
2024/04/23 08:29:06;;;;;;;;;7.00;6.00;;;;;8.18;58.98;101008.81;112432;232;169788;-60
2024/04/23 08:31:40;;;;;;;;;8.00;6.00;;;;;8.29;58.06;101007.83;113020;232;40292;-59
2024/04/23 08:34:18;;;;;;;;;8.00;6.00;;;;;8.36;57.76;101005.02;112609;233;169142;-60
2024/04/23 08:36:59;;;;;;;;;6.50;5.00;;;;;8.36;57.73;101000.02;112516;236;40508;-60
2024/04/23 08:39:36;;;;;;;;;7.00;6.00;;;;;8.50;57.07;100996.14;112384;232;169452;-62
2024/04/23 08:42:16;;;;;;;;;9.00;7.00;;;;;8.57;56.89;100992.34;112816;235;41066;-60
2024/04/23 08:44:56;;;;;;;;;10.00;8.00;;;;;8.61;57.09;100988.55;112911;232;41683;-57
2024/04/23 08:47:34;;;;;;;;;7.00;6.00;;;;;8.82;56.89;100987.16;112583;235;40500;-58
2024/04/23 08:50:10;;;;;;;;;12.00;9.33;;;;;9.05;56.73;100983.06;112871;232;40237;-58
2024/04/23 08:52:48;;;;;;;;;9.00;8.00;;;;;9.16;57.07;100979.54;112355;236;169336;-58
2024/04/23 08:55:28;;;;;;;;;10.00;7.00;;;;;9.11;56.77;100985.77;112506;232;41229;-58
2024/04/23 08:58:05;;;;;;;;;10.50;9.50;;;;;9.16;55.95;100984.88;112536;235;169566;-57
2024/04/23 09:00:42;;;;;;;;;12.00;10.00;;;;;9.17;55.96;100982.48;112921;231;40175;-57
2024/04/23 09:03:23;;;;;;;;;11.75;8.50;;;;;9.04;56.33;100985.14;112810;230;169584;-57
2024/04/23 09:06:00;;;;;;;;;10.00;8.50;;;;;8.93;56.11;100984.71;112706;232;40754;-59
2024/04/23 09:08:37;;;;;;;;;9.75;9.00;;;;;9.03;55.96;100985.91;112912;232;39989;-58
2024/04/23 09:11:14;;;;;;;;;14.00;11.00;;;;;9.14;55.33;100985.52;112382;233;169567;-58
2024/04/23 09:13:49;;;;;;;;;10.67;9.00;;;;;9.16;54.63;100981.80;112598;236;40993;-59
2024/04/23 09:16:40;;;;;;;;;13.00;10.00;;;;;9.08;54.63;100982.75;112447;232;169752;-57
2024/04/23 09:19:23;;;;;;;;;15.00;10.00;;;;;9.09;54.95;100979.63;112866;232;41983;-59
2024/04/23 09:22:01;;;;;;;;;14.00;11.00;;;;;9.24;54.61;100978.11;112629;235;170920;-61
2024/04/23 09:24:39;;;;;;;;;10.50;9.00;;;;;9.35;53.56;100970.60;112557;233;41729;-61
2024/04/23 09:27:29;;;;;;;;;9.00;8.00;;;;;9.38;53.96;100966.33;112396;235;169811;-61
2024/04/23 09:30:10;;;;;;;;;14.00;10.00;;;;;9.55;54.66;100965.08;112948;231;41738;-56
2024/04/23 09:32:57;;;;;;;;;13.00;9.50;;;;;9.76;54.54;100961.61;113057;234;41004;-58
2024/04/23 09:35:35;;;;;;;;;9.00;8.00;;;;;10.09;54.42;100959.35;112470;233;39679;-57
2024/04/23 09:38:11;;;;;;;;;13.25;9.50;;;;;10.33;54.61;100958.86;112609;232;40457;-57
2024/04/23 09:40:56;;;;;;;;;11.67;8.33;;;;;10.48;54.66;100958.16;112336;233;169676;-60
2024/04/23 09:43:35;;;;;;;;;10.00;8.00;;;;;10.74;53.92;100955.52;112545;232;40581;-58
2024/04/23 09:46:12;;;;;;;;;13.00;9.00;;;;;10.69;53.58;100950.67;112421;232;169533;-57
2024/04/23 09:48:50;;;;;;;;;8.33;7.67;;;;;10.83;53.23;100952.08;112824;232;41455;-59
2024/04/23 09:51:31;;;;;;;;;9.33;8.00;;;;;10.84;52.22;100948.98;112704;235;169617;-58
2024/04/23 09:54:16;;;;;;;;;13.00;10.00;;;;;10.67;51.85;100946.40;112532;236;40577;-59
2024/04/23 09:57:02;;;;;;;;;12.00;10.00;;;;;10.60;52.51;100947.91;112585;232;40043;-58
2024/04/23 09:59:39;;;;;;;;;13.00;11.00;;;;;10.72;52.72;100948.52;112556;233;39978;-56
2024/04/23 10:02:19;;;;;;;;;11.00;9.00;;;;;10.87;52.64;100946.83;112933;232;40455;-57
2024/04/23 10:04:58;;;;;;;;;10.00;9.00;;;;;10.64;51.64;100946.41;112412;235;169699;-57
2024/04/23 10:07:40;;;;;;;;;11.00;9.00;;;;;10.42;51.37;100945.36;112622;232;40576;-60
2024/04/23 10:10:30;;;;;;;;;10.00;9.00;;;;;10.70;51.02;100947.00;112418;236;171277;-57
2024/04/23 10:13:09;;;;;;;;;10.50;8.50;;;;;10.90;50.23;100940.52;112869;232;40137;-58
2024/04/23 10:15:58;;;;;;;;;14.00;12.00;;;;;10.94;49.80;100938.27;112717;235;170142;-58
2024/04/23 10:18:46;;;;;;;;;14.00;10.00;;;;;11.00;49.03;100934.48;112548;234;42987;-60
2024/04/23 10:21:30;;;;;;;;;13.00;10.00;;;;;11.03;48.87;100932.59;112516;235;170039;-61
2024/04/23 10:24:09;;;;;;;;;11.33;10.00;;;;;10.96;49.26;100929.31;112988;234;40512;-58
2024/04/23 10:26:56;;;;;;;;;13.33;11.00;;;;;10.89;49.64;100926.74;112999;230;39802;-56
2024/04/23 10:29:31;;;;;;;;;15.75;10.00;;;;;10.99;49.67;100921.17;112371;233;169647;-62
2024/04/23 10:32:08;;;;;;;;;16.00;11.25;;;;;11.14;49.72;100914.71;112532;236;40767;-59
2024/04/23 10:34:48;;;;;;;;;11.00;9.00;;;;;11.22;50.19;100918.85;112604;235;169876;-59
2024/04/23 10:37:25;;;;;;;;;14.00;12.00;;;;;11.39;49.60;100917.19;112961;230;41545;-59
2024/04/23 10:40:06;;;;;;;;;13.33;11.00;;;;;11.48;48.92;100919.17;112735;230;169633;-57
2024/04/23 10:42:46;;;;;;;;;14.00;11.00;;;;;11.41;48.70;100920.71;112491;233;40582;-59
2024/04/23 10:45:23;;;;;;;;;12.00;9.00;;;;;11.39;48.40;100911.57;112391;232;170710;-59
2024/04/23 10:48:06;;;;;;;;;14.00;12.00;;;;;11.37;47.14;100906.04;112981;231;41551;-61
2024/04/23 10:50:58;;;;;;;;;14.50;12.00;;;;;11.29;47.42;100904.16;113108;230;41312;-57
2024/04/23 10:53:37;;;;;;;;;15.00;13.00;;;;;11.30;47.30;100897.52;112146;235;170114;-60
2024/04/23 10:56:25;;;;;;;;;12.50;10.00;;;;;11.26;47.90;100898.18;112620;232;39813;-61
2024/04/23 10:59:17;;;;;;;;;13.00;11.00;;;;;11.40;48.35;100898.92;112455;236;170355;-61
2024/04/23 11:02:02;;;;;;;;;15.00;11.00;;;;;11.50;48.29;100896.44;112964;232;39847;-60
2024/04/23 11:04:43;;;;;;;;;15.00;12.67;;;;;11.55;48.74;100889.61;112563;232;169793;-61
2024/04/23 11:07:36;;;;;;;;;11.00;9.00;;;;;11.69;48.48;100885.36;112554;232;40330;-56
2024/04/23 11:10:23;;;;;;;;;14.50;11.50;;;;;11.73;48.47;100890.89;112562;231;169915;-57
2024/04/23 11:13:23;;;;;;;;;15.00;12.00;;;;;11.75;47.27;100888.16;113032;230;40463;-62
2024/04/23 11:16:15;;;;;;;;;17.50;12.50;;;;;11.61;47.34;100883.84;112628;234;169849;-62
2024/04/23 11:19:01;;;;;;;;;13.00;11.50;;;;;11.33;47.61;100877.00;112449;232;40583;-62
2024/04/23 11:21:55;;;;;;;;;13.00;11.00;;;;;11.19;47.19;100871.19;112418;232;170043;-58
2024/04/23 11:24:34;;;;;;;;;14.00;12.00;;;;;11.00;46.89;100871.02;112932;230;41840;-51
2024/04/23 11:27:12;;;;;;;;;14.00;12.33;;;;;11.29;47.49;100865.16;112982;231;40144;-59
2024/04/23 11:29:49;;;;;;;;;15.00;12.50;;;;;11.97;47.16;100863.29;112947;234;40304;-67
2024/04/23 11:32:32;;;;;;;;;12.00;10.00;;;;;12.35;46.72;100854.69;112962;230;40367;-58
2024/04/23 11:35:13;;;;;;;;;16.00;13.00;;;;;12.57;46.01;100849.81;112425;234;170057;-58
2024/04/23 11:37:56;;;;;;;;;19.00;14.00;;;;;12.55;44.93;100849.29;112517;232;40456;-58
2024/04/23 11:40:31;;;;;;;;;11.50;9.00;;;;;12.13;44.91;100842.45;112607;235;169727;-59
2024/04/23 11:43:06;;;;;;;;;13.00;12.00;;;;;12.04;44.99;100835.67;113023;230;40620;-60
2024/04/23 11:45:41;;;;;;;;;14.00;13.00;;;;;12.25;44.24;100835.85;112835;230;170004;-61
2024/04/23 11:48:18;;;;;;;;;15.00;12.00;;;;;12.33;43.41;100834.52;112560;236;40159;-62
2024/04/23 11:51:00;;;;;;;;;13.33;10.33;;;;;12.12;44.19;100827.80;112573;232;39927;-63
2024/04/23 11:53:41;;;;;;;;;12.33;10.33;;;;;12.10;45.15;100828.16;112756;231;169860;-61
2024/04/23 11:56:18;;;;;;;;;14.00;11.33;;;;;12.12;45.32;100820.25;113052;230;40863;-62
2024/04/23 11:58:54;;;;;;;;;12.00;9.00;;;;;12.01;44.79;100819.08;112554;234;169879;-59
2024/04/23 12:01:29;;;;;;;;;16.00;12.50;;;;;11.53;44.36;100809.95;112534;232;41635;-58
2024/04/23 12:04:09;;;;;;;;;13.00;11.00;;;;;11.23;44.58;100809.50;112409;232;170085;-57
2024/04/23 12:06:45;;;;;;;;;14.00;11.00;;;;;10.81;44.50;100803.85;113002;234;40563;-58
2024/04/23 12:09:22;;;;;;;;;12.00;10.50;;;;;10.66;44.57;100801.20;112911;230;170105;-60
2024/04/23 12:12:01;;;;;;;;;13.00;11.00;;;;;10.83;44.23;100797.13;112497;232;40198;-53
2024/04/23 12:14:40;;;;;;;;;15.00;14.00;;;;;11.13;43.90;100795.16;112500;232;40396;-60